Time;durP1;ratioP1;P1;durP2;ratioP2;P2;SDS_P1;SDS_P2;PMS_P1;PMS_P2;Temp;Humidity;BMP_temperature;BMP_pressure;BME280_temperature;BME280_humidity;BME280_pressure;Samples;Min_cycle;Max_cycle;Signal;HPM_P1;HPM_P2
2023/06/01 00:00:17;;;;;;;6.10;4.27;;;;;;;;;;5015442;28;20974;-42
2023/06/01 00:02:43;;;;;;;5.13;4.10;;;;;;;;;;5015002;28;20383;-42
2023/06/01 00:05:09;;;;;;;5.37;3.77;;;;;;;;;;5015235;28;20465;-42
2023/06/01 00:07:35;;;;;;;6.27;4.20;;;;;;;;;;5015179;28;20388;-42
2023/06/01 00:10:01;;;;;;;4.97;3.90;;;;;;;;;;5015238;28;20474;-43
2023/06/01 00:12:27;;;;;;;14.00;4.20;;;;;;;;;;5014882;28;20479;-42
2023/06/01 00:14:54;;;;;;;8.80;5.03;;;;;;;;;;5013230;28;20509;-42
2023/06/01 00:17:22;;;;;;;5.73;3.43;;;;;;;;;;5008161;28;20474;-42
2023/06/01 00:19:48;;;;;;;12.70;4.10;;;;;;;;;;5014940;28;20400;-42
2023/06/01 00:22:15;;;;;;;9.13;5.47;;;;;;;;;;5014169;28;20391;-42
2023/06/01 00:24:41;;;;;;;7.03;5.07;;;;;;;;;;5014844;28;20417;-42
2023/06/01 00:27:07;;;;;;;8.43;5.07;;;;;;;;;;5014789;28;20406;-42
2023/06/01 00:29:33;;;;;;;10.23;5.07;;;;;;;;;;5014875;28;20753;-42
2023/06/01 00:32:00;;;;;;;8.90;5.30;;;;;;;;;;5014919;28;20476;-42
2023/06/01 00:34:25;;;;;;;7.57;5.20;;;;;;;;;;5014535;28;20429;-42
2023/06/01 00:36:51;;;;;;;7.33;5.60;;;;;;;;;;5014538;28;20449;-42
2023/06/01 00:39:18;;;;;;;9.33;4.70;;;;;;;;;;5014043;28;20918;-43
2023/06/01 00:41:44;;;;;;;11.50;4.83;;;;;;;;;;5014619;28;20465;-43
2023/06/01 00:44:10;;;;;;;8.20;5.20;;;;;;;;;;5014155;28;20884;-43
2023/06/01 00:46:37;;;;;;;10.40;4.93;;;;;;;;;;5014322;28;20490;-43
2023/06/01 00:49:03;;;;;;;6.93;5.43;;;;;;;;;;5019483;28;20395;-43
2023/06/01 00:51:29;;;;;;;10.77;5.27;;;;;;;;;;5014401;28;20395;-42
2023/06/01 00:53:55;;;;;;;8.03;5.23;;;;;;;;;;5013689;28;20417;-43
2023/06/01 00:56:21;;;;;;;9.33;5.33;;;;;;;;;;5020706;28;20435;-43
2023/06/01 00:58:48;;;;;;;14.23;6.17;;;;;;;;;;5014069;28;20437;-43
2023/06/01 01:01:22;;;;;;;10.70;5.70;;;;;;;;;;5013883;28;20947;-43
2023/06/01 01:03:49;;;;;;;11.73;6.53;;;;;;;;;;5013297;28;20447;-43
2023/06/01 01:06:34;;;;;;;10.37;5.73;;;;;;;;;;5013708;28;20479;-43
2023/06/01 01:09:35;;;;;;;8.80;6.50;;;;;;;;;;5012159;28;20402;-43
2023/06/01 01:12:08;;;;;;;9.00;6.20;;;;;;;;;;4957563;28;20439;-43
2023/06/01 01:14:43;;;;;;;13.27;6.93;;;;;;;;;;5005401;28;20494;-43
2023/06/01 01:17:13;;;;;;;9.40;6.27;;;;;;;;;;5013608;28;20480;-42
2023/06/01 01:19:54;;;;;;;8.80;6.10;;;;;;;;;;5013728;28;20889;-43
2023/06/01 01:22:36;;;;;;;11.20;6.50;;;;;;;;;;5007030;28;20427;-43
2023/06/01 01:25:05;;;;;;;8.23;5.87;;;;;;;;;;5013700;28;20401;-43
2023/06/01 01:27:37;;;;;;;11.03;6.87;;;;;;;;;;5013658;28;20769;-43
2023/06/01 01:30:06;;;;;;;7.67;6.20;;;;;;;;;;5013498;28;20490;-43
2023/06/01 01:32:35;;;;;;;11.83;7.10;;;;;;;;;;5013307;28;20422;-43
2023/06/01 01:35:01;;;;;;;8.57;6.30;;;;;;;;;;5013474;28;20391;-43
2023/06/01 01:37:27;;;;;;;9.67;6.10;;;;;;;;;;5013770;28;20441;-43
2023/06/01 01:39:53;;;;;;;9.57;5.87;;;;;;;;;;5011638;28;20763;-43
2023/06/01 01:42:19;;;;;;;9.07;6.43;;;;;;;;;;5012516;28;20401;-43
2023/06/01 01:44:46;;;;;;;13.70;6.30;;;;;;;;;;5013074;28;20796;-43
2023/06/01 01:47:28;;;;;;;11.53;6.17;;;;;;;;;;5013324;28;20446;-43
2023/06/01 01:50:00;;;;;;;7.13;5.50;;;;;;;;;;5011179;28;20535;-43
2023/06/01 01:52:37;;;;;;;10.63;6.57;;;;;;;;;;5013063;28;20418;-43
2023/06/01 01:55:04;;;;;;;7.60;5.57;;;;;;;;;;5014100;28;20412;-43
2023/06/01 01:57:30;;;;;;;14.93;5.87;;;;;;;;;;5018451;28;20538;-43
2023/06/01 02:00:01;;;;;;;7.00;5.43;;;;;;;;;;5013098;28;20394;-43
2023/06/01 02:02:27;;;;;;;12.03;6.37;;;;;;;;;;5012825;28;20901;-43
2023/06/01 02:04:53;;;;;;;7.27;5.90;;;;;;;;;;5012885;28;20838;-43
2023/06/01 02:07:19;;;;;;;9.10;6.17;;;;;;;;;;5012211;28;20910;-43
2023/06/01 02:09:45;;;;;;;10.30;5.97;;;;;;;;;;5011289;28;20466;-43
2023/06/01 02:12:11;;;;;;;13.57;6.97;;;;;;;;;;5004225;28;20417;-43
2023/06/01 02:14:37;;;;;;;11.97;6.80;;;;;;;;;;5012803;28;20435;-43
2023/06/01 02:17:03;;;;;;;11.03;6.50;;;;;;;;;;5012539;28;20441;-43
2023/06/01 02:19:29;;;;;;;9.70;7.10;;;;;;;;;;5012757;28;20457;-43
2023/06/01 02:21:55;;;;;;;9.47;7.50;;;;;;;;;;5012614;28;20411;-43
2023/06/01 02:24:21;;;;;;;15.10;7.73;;;;;;;;;;5012283;28;20433;-43
2023/06/01 02:26:53;;;;;;;11.30;6.53;;;;;;;;;;5011327;28;20429;-43
2023/06/01 02:29:21;;;;;;;12.30;7.53;;;;;;;;;;5012703;28;20498;-43
2023/06/01 02:31:48;;;;;;;15.90;8.30;;;;;;;;;;5009463;28;20411;-43
2023/06/01 02:34:14;;;;;;;10.50;7.53;;;;;;;;;;5012284;28;20427;-43
2023/06/01 02:36:40;;;;;;;11.37;7.30;;;;;;;;;;5012228;28;20469;-43
2023/06/01 02:39:06;;;;;;;14.80;8.10;;;;;;;;;;5008231;28;20408;-43
2023/06/01 02:41:32;;;;;;;13.50;7.97;;;;;;;;;;5009671;28;20469;-43
2023/06/01 02:43:57;;;;;;;13.40;8.33;;;;;;;;;;5010460;28;21048;-43
2023/06/01 02:46:23;;;;;;;15.57;8.47;;;;;;;;;;5015665;28;20989;-43
2023/06/01 02:48:51;;;;;;;17.23;10.23;;;;;;;;;;5011904;28;20743;-43
2023/06/01 02:51:18;;;;;;;16.17;8.83;;;;;;;;;;5012111;28;20411;-43
2023/06/01 02:53:46;;;;;;;14.50;10.03;;;;;;;;;;5011938;28;20466;-43
2023/06/01 02:56:12;;;;;;;15.93;9.20;;;;;;;;;;5012053;28;20445;-43
2023/06/01 02:58:38;;;;;;;22.20;9.83;;;;;;;;;;5016416;28;20497;-43
2023/06/01 03:01:04;;;;;;;13.97;9.50;;;;;;;;;;5012080;28;20418;-43
2023/06/01 03:03:32;;;;;;;18.87;10.70;;;;;;;;;;5011775;28;20513;-43
2023/06/01 03:05:58;;;;;;;17.00;10.83;;;;;;;;;;5011919;28;20386;-43
2023/06/01 03:08:27;;;;;;;17.77;11.23;;;;;;;;;;5012210;28;20410;-43
2023/06/01 03:10:53;;;;;;;21.87;11.27;;;;;;;;;;5011957;28;20506;-43
2023/06/01 03:13:19;;;;;;;25.87;12.17;;;;;;;;;;5009240;28;20545;-43
2023/06/01 03:15:45;;;;;;;28.33;13.20;;;;;;;;;;5011822;28;20767;-43
2023/06/01 03:18:11;;;;;;;24.67;13.67;;;;;;;;;;5011620;28;20423;-43
2023/06/01 03:20:37;;;;;;;25.57;14.43;;;;;;;;;;5011792;28;20440;-42
2023/06/01 03:23:03;;;;;;;24.47;13.00;;;;;;;;;;5011645;28;20531;-42
2023/06/01 03:25:29;;;;;;;26.10;13.70;;;;;;;;;;5011962;28;20406;-43
2023/06/01 03:27:55;;;;;;;21.87;12.70;;;;;;;;;;5015042;28;20905;-43
2023/06/01 03:30:22;;;;;;;20.43;12.37;;;;;;;;;;5011905;28;20513;-42
2023/06/01 03:32:48;;;;;;;22.50;13.20;;;;;;;;;;5011496;28;20413;-43
2023/06/01 03:35:14;;;;;;;24.33;13.23;;;;;;;;;;5012013;28;20500;-43
2023/06/01 03:37:41;;;;;;;26.43;12.77;;;;;;;;;;5011463;28;20974;-43
2023/06/01 03:40:11;;;;;;;25.03;13.10;;;;;;;;;;5011792;28;20414;-42
2023/06/01 03:42:37;;;;;;;23.33;12.70;;;;;;;;;;5009463;28;20458;-43
2023/06/01 03:45:04;;;;;;;30.33;14.70;;;;;;;;;;5010836;28;20851;-43
2023/06/01 03:47:30;;;;;;;20.80;12.83;;;;;;;;;;5011573;28;20419;-42
2023/06/01 03:49:58;;;;;;;24.97;13.60;;;;;;;;;;5011562;28;20429;-42
2023/06/01 03:52:24;;;;;;;25.77;13.30;;;;;;;;;;5011415;28;20417;-42
2023/06/01 03:54:50;;;;;;;25.73;14.10;;;;;;;;;;5011449;28;20417;-42
2023/06/01 03:57:16;;;;;;;25.40;13.87;;;;;;;;;;5017946;28;20547;-43
2023/06/01 03:59:42;;;;;;;20.83;11.57;;;;;;;;;;5011482;28;20420;-43
2023/06/01 04:02:09;;;;;;;23.47;14.50;;;;;;;;;;5011211;28;20410;-43
2023/06/01 04:04:35;;;;;;;26.10;15.20;;;;;;;;;;5011386;28;20965;-43
2023/06/01 04:07:03;;;;;;;27.23;14.90;;;;;;;;;;5011482;28;20794;-43
2023/06/01 04:09:32;;;;;;;25.77;15.33;;;;;;;;;;5011529;28;20902;-43
2023/06/01 04:11:58;;;;;;;24.83;14.60;;;;;;;;;;5009918;28;20925;-43
2023/06/01 04:14:24;;;;;;;22.60;14.93;;;;;;;;;;5011511;28;20427;-43
2023/06/01 04:16:50;;;;;;;25.40;14.80;;;;;;;;;;5010979;28;20512;-43
2023/06/01 04:19:16;;;;;;;34.83;16.73;;;;;;;;;;5010081;28;20461;-43
2023/06/01 04:21:43;;;;;;;32.77;17.13;;;;;;;;;;5011293;28;20917;-42
2023/06/01 04:24:09;;;;;;;27.33;16.03;;;;;;;;;;5011054;28;20508;-43
2023/06/01 04:26:35;;;;;;;28.50;14.83;;;;;;;;;;5010115;28;20591;-43
2023/06/01 04:29:02;;;;;;;23.80;14.27;;;;;;;;;;5011978;28;20422;-43
2023/06/01 04:31:29;;;;;;;25.97;15.53;;;;;;;;;;5014632;28;20417;-43
2023/06/01 04:33:56;;;;;;;29.57;15.50;;;;;;;;;;5014537;28;20463;-43
2023/06/01 04:36:22;;;;;;;25.90;14.93;;;;;;;;;;5014483;28;20465;-43
2023/06/01 04:38:54;;;;;;;32.77;16.27;;;;;;;;;;5013685;28;20414;-43
2023/06/01 04:41:21;;;;;;;26.20;15.47;;;;;;;;;;5013154;28;20407;-43
2023/06/01 04:43:54;;;;;;;32.30;15.77;;;;;;;;;;5014330;28;20490;-42
2023/06/01 04:46:24;;;;;;;29.33;15.97;;;;;;;;;;5007687;28;20530;-43
2023/06/01 04:48:59;;;;;;;31.20;15.60;;;;;;;;;;5014366;28;20405;-42
2023/06/01 04:51:26;;;;;;;30.27;16.10;;;;;;;;;;5014511;28;20414;-42
2023/06/01 04:53:53;;;;;;;35.13;15.57;;;;;;;;;;5013969;28;20936;-43
2023/06/01 04:56:20;;;;;;;28.53;15.13;;;;;;;;;;5014120;28;20462;-43
2023/06/01 04:58:50;;;;;;;36.13;19.80;;;;;;;;;;5014233;28;20470;-43
2023/06/01 05:01:17;;;;;;;30.90;15.50;;;;;;;;;;5014353;28;20832;-43
2023/06/01 05:03:43;;;;;;;26.73;14.90;;;;;;;;;;5013856;28;20427;-43
2023/06/01 05:06:13;;;;;;;26.70;16.17;;;;;;;;;;5014540;28;20497;-43
2023/06/01 05:08:40;;;;;;;31.30;16.60;;;;;;;;;;5013994;28;20800;-43
2023/06/01 05:11:06;;;;;;;30.47;17.67;;;;;;;;;;5013971;28;20824;-43
2023/06/01 05:13:35;;;;;;;37.83;17.80;;;;;;;;;;5011143;28;20496;-43
2023/06/01 05:16:01;;;;;;;27.07;16.83;;;;;;;;;;5012471;28;20526;-43
2023/06/01 05:18:27;;;;;;;32.63;18.43;;;;;;;;;;5013883;28;20409;-42
2023/06/01 05:20:53;;;;;;;29.13;16.57;;;;;;;;;;5013794;28;20644;-43
2023/06/01 05:23:19;;;;;;;30.03;17.47;;;;;;;;;;5013515;28;20420;-43
2023/06/01 05:25:45;;;;;;;29.13;17.10;;;;;;;;;;5013676;28;20402;-43
2023/06/01 05:28:11;;;;;;;31.73;16.90;;;;;;;;;;5013676;28;20385;-43
2023/06/01 05:30:37;;;;;;;28.47;15.90;;;;;;;;;;5013725;28;20413;-43
2023/06/01 05:33:03;;;;;;;35.40;17.03;;;;;;;;;;5013192;28;20445;-42
2023/06/01 05:35:30;;;;;;;35.17;17.17;;;;;;;;;;5013664;28;20487;-43
2023/06/01 05:37:56;;;;;;;35.80;17.90;;;;;;;;;;5013199;28;20507;-42
2023/06/01 05:40:22;;;;;;;31.97;17.60;;;;;;;;;;5012568;28;20443;-42
2023/06/01 05:42:48;;;;;;;34.40;18.13;;;;;;;;;;5010360;28;20432;-43
2023/06/01 05:45:14;;;;;;;31.13;17.90;;;;;;;;;;5014008;28;20440;-43
2023/06/01 05:47:40;;;;;;;36.17;19.27;;;;;;;;;;5015014;28;20508;-43
2023/06/01 05:50:06;;;;;;;34.97;20.80;;;;;;;;;;5020328;28;20510;-43
2023/06/01 05:52:32;;;;;;;42.03;21.60;;;;;;;;;;5012837;28;20572;-43
2023/06/01 05:54:58;;;;;;;44.30;21.40;;;;;;;;;;5012864;28;20418;-42
2023/06/01 05:57:24;;;;;;;39.60;22.30;;;;;;;;;;5012963;28;21044;-43
2023/06/01 05:59:50;;;;;;;43.37;21.53;;;;;;;;;;5013350;28;20410;-43
2023/06/01 06:02:16;;;;;;;47.47;24.60;;;;;;;;;;5018431;28;20399;-43
2023/06/01 06:04:43;;;;;;;38.77;21.97;;;;;;;;;;5012315;28;20518;-43
2023/06/01 06:07:10;;;;;;;42.10;22.03;;;;;;;;;;5012235;28;20414;-42
2023/06/01 06:09:36;;;;;;;35.30;18.93;;;;;;;;;;5012518;28;20899;-42
2023/06/01 06:12:02;;;;;;;38.90;21.10;;;;;;;;;;5012154;28;20429;-43
2023/06/01 06:14:28;;;;;;;36.97;21.10;;;;;;;;;;5010527;28;20455;-43
2023/06/01 06:16:54;;;;;;;45.53;23.53;;;;;;;;;;5011911;28;20821;-43
2023/06/01 06:19:20;;;;;;;39.13;20.33;;;;;;;;;;5012374;28;20407;-43
2023/06/01 06:21:46;;;;;;;31.93;18.70;;;;;;;;;;5012082;28;20416;-43
2023/06/01 06:24:13;;;;;;;21.13;13.27;;;;;;;;;;5012056;28;20431;-42
2023/06/01 06:26:40;;;;;;;27.63;12.83;;;;;;;;;;5011961;28;20427;-43
2023/06/01 06:29:06;;;;;;;25.43;13.07;;;;;;;;;;5012154;28;20473;-43
2023/06/01 06:31:32;;;;;;;20.63;13.60;;;;;;;;;;5012596;28;20758;-42
2023/06/01 06:33:57;;;;;;;23.37;13.90;;;;;;;;;;5012559;28;20430;-43
2023/06/01 06:36:23;;;;;;;18.27;12.20;;;;;;;;;;5012201;28;20517;-43
2023/06/01 06:38:50;;;;;;;18.77;12.90;;;;;;;;;;5014477;28;20385;-41
2023/06/01 06:41:16;;;;;;;21.03;12.33;;;;;;;;;;5012452;28;20482;-41
2023/06/01 06:43:41;;;;;;;18.93;11.10;;;;;;;;;;5011218;28;20528;-40
2023/06/01 06:46:08;;;;;;;15.17;11.60;;;;;;;;;;5012022;28;20926;-40
2023/06/01 06:48:34;;;;;;;23.20;12.17;;;;;;;;;;5012312;28;20429;-41
2023/06/01 06:51:00;;;;;;;21.07;13.30;;;;;;;;;;5012063;28;20792;-40
2023/06/01 06:53:26;;;;;;;17.87;12.47;;;;;;;;;;5011563;28;20419;-41
2023/06/01 06:55:52;;;;;;;16.43;12.10;;;;;;;;;;5012041;28;20387;-41
2023/06/01 06:58:18;;;;;;;19.60;12.97;;;;;;;;;;5012100;28;20477;-41
2023/06/01 07:00:44;;;;;;;17.40;12.77;;;;;;;;;;5012125;28;20381;-43
2023/06/01 07:03:10;;;;;;;26.40;14.10;;;;;;;;;;5011727;28;20579;-41
2023/06/01 07:05:36;;;;;;;19.80;12.73;;;;;;;;;;5011979;28;20396;-41
2023/06/01 07:08:02;;;;;;;22.93;14.03;;;;;;;;;;5011846;28;20422;-41
2023/06/01 07:10:28;;;;;;;19.20;13.73;;;;;;;;;;5012184;28;20381;-41
2023/06/01 07:12:54;;;;;;;18.37;12.97;;;;;;;;;;5006428;28;20451;-41
2023/06/01 07:15:21;;;;;;;23.10;13.10;;;;;;;;;;5010041;28;20454;-41
2023/06/01 07:17:47;;;;;;;19.63;12.70;;;;;;;;;;5010860;28;20880;-41
2023/06/01 07:20:13;;;;;;;19.60;11.03;;;;;;;;;;5011779;28;20891;-41
2023/06/01 07:22:39;;;;;;;16.43;10.63;;;;;;;;;;5011612;28;20397;-41
2023/06/01 07:25:07;;;;;;;18.17;11.30;;;;;;;;;;5011716;28;20411;-41
2023/06/01 07:27:36;;;;;;;16.10;10.90;;;;;;;;;;5011808;28;20418;-41
2023/06/01 07:30:03;;;;;;;17.73;10.30;;;;;;;;;;5011037;28;20453;-41
2023/06/01 07:32:29;;;;;;;14.73;9.83;;;;;;;;;;5009484;28;20426;-41
2023/06/01 07:34:57;;;;;;;15.80;11.40;;;;;;;;;;5009777;28;20431;-42
2023/06/01 07:37:26;;;;;;;15.90;9.80;;;;;;;;;;5010252;28;20469;-41
2023/06/01 07:39:52;;;;;;;17.53;9.37;;;;;;;;;;5012200;28;20754;-41
2023/06/01 07:42:18;;;;;;;11.37;8.57;;;;;;;;;;5010169;28;20786;-41
2023/06/01 07:44:44;;;;;;;17.43;10.20;;;;;;;;;;5009493;28;20481;-41
2023/06/01 07:47:10;;;;;;;16.07;10.50;;;;;;;;;;5011326;28;20487;-41
2023/06/01 07:49:36;;;;;;;13.87;9.20;;;;;;;;;;5010733;28;20430;-41
2023/06/01 07:52:02;;;;;;;18.00;10.83;;;;;;;;;;5011508;28;20924;-41
2023/06/01 07:54:28;;;;;;;19.20;11.13;;;;;;;;;;5011645;28;20488;-41
2023/06/01 07:56:56;;;;;;;16.80;11.70;;;;;;;;;;5017948;28;20443;-43
2023/06/01 07:59:23;;;;;;;14.73;10.60;;;;;;;;;;5011487;28;20390;-43
2023/06/01 08:01:50;;;;;;;17.17;10.37;;;;;;;;;;5011282;28;20389;-41
2023/06/01 08:04:16;;;;;;;15.90;11.50;;;;;;;;;;5012458;28;20399;-41
2023/06/01 08:06:43;;;;;;;13.77;9.67;;;;;;;;;;5015229;28;20417;-41
2023/06/01 08:09:10;;;;;;;14.27;9.87;;;;;;;;;;5015179;28;20475;-43
2023/06/01 08:11:36;;;;;;;18.83;9.87;;;;;;;;;;5015235;28;20392;-41
2023/06/01 08:14:07;;;;;;;16.73;9.63;;;;;;;;;;5014760;28;20411;-41
2023/06/01 08:16:33;;;;;;;13.47;9.40;;;;;;;;;;5013151;28;20466;-41
2023/06/01 08:19:00;;;;;;;15.93;9.93;;;;;;;;;;5006103;28;20408;-41
2023/06/01 08:21:26;;;;;;;16.03;9.80;;;;;;;;;;5015495;28;20754;-41
2023/06/01 08:23:56;;;;;;;16.80;10.57;;;;;;;;;;5016119;28;20496;-44
2023/06/01 08:26:22;;;;;;;23.03;12.00;;;;;;;;;;5014502;28;20796;-41
2023/06/01 08:28:52;;;;;;;15.00;10.60;;;;;;;;;;5013782;28;20422;-43
2023/06/01 08:31:22;;;;;;;17.30;9.70;;;;;;;;;;5014445;28;20405;-41
2023/06/01 08:33:48;;;;;;;12.53;9.47;;;;;;;;;;5013946;28;20430;-41
2023/06/01 08:36:14;;;;;;;18.60;10.33;;;;;;;;;;5015163;28;20867;-41
2023/06/01 08:38:41;;;;;;;16.07;11.07;;;;;;;;;;5014297;28;20419;-41
2023/06/01 08:41:15;;;;;;;11.97;8.77;;;;;;;;;;5014089;28;20423;-41
2023/06/01 08:43:41;;;;;;;13.50;10.27;;;;;;;;;;5014005;28;20542;-41
2023/06/01 08:46:07;;;;;;;14.50;9.77;;;;;;;;;;5012827;28;20446;-41
2023/06/01 08:48:33;;;;;;;17.47;10.80;;;;;;;;;;5014163;28;20907;-42
2023/06/01 08:51:01;;;;;;;14.13;10.40;;;;;;;;;;5011761;28;20778;-42
2023/06/01 08:53:28;;;;;;;14.20;9.97;;;;;;;;;;5014033;28;20431;-41
2023/06/01 08:55:55;;;;;;;19.73;9.17;;;;;;;;;;5014108;28;20414;-44
2023/06/01 08:58:21;;;;;;;14.57;8.83;;;;;;;;;;5014188;28;20428;-42
2023/06/01 09:00:48;;;;;;;11.93;8.57;;;;;;;;;;5014379;28;20490;-42
2023/06/01 09:03:13;;;;;;;11.80;7.93;;;;;;;;;;5013902;28;20954;-42
2023/06/01 09:05:40;;;;;;;11.67;8.70;;;;;;;;;;5014205;28;20451;-41
2023/06/01 09:08:06;;;;;;;13.27;8.70;;;;;;;;;;5013095;28;20423;-42
2023/06/01 09:10:32;;;;;;;11.00;8.17;;;;;;;;;;5013969;28;20914;-42
2023/06/01 09:12:58;;;;;;;16.70;9.27;;;;;;;;;;5013767;28;20466;-43
2023/06/01 09:15:25;;;;;;;10.03;8.07;;;;;;;;;;5013823;28;20465;-42
2023/06/01 09:17:52;;;;;;;10.87;8.67;;;;;;;;;;5012793;28;20545;-41
2023/06/01 09:20:25;;;;;;;8.97;7.93;;;;;;;;;;5013201;28;20477;-43
2023/06/01 09:22:51;;;;;;;10.23;8.50;;;;;;;;;;5013726;28;20770;-41
2023/06/01 09:25:23;;;;;;;9.83;8.53;;;;;;;;;;5013758;28;20420;-42
2023/06/01 09:27:50;;;;;;;9.43;8.43;;;;;;;;;;5013647;28;20449;-41
2023/06/01 09:30:17;;;;;;;9.43;7.97;;;;;;;;;;5013762;28;20945;-41
2023/06/01 09:32:44;;;;;;;12.80;8.13;;;;;;;;;;5013844;28;20800;-41
2023/06/01 09:35:10;;;;;;;10.93;8.43;;;;;;;;;;5013639;28;20846;-42
2023/06/01 09:37:37;;;;;;;12.50;8.97;;;;;;;;;;5013454;28;20469;-42
2023/06/01 09:40:16;;;;;;;15.93;8.73;;;;;;;;;;5013557;28;20744;-42
2023/06/01 09:42:42;;;;;;;12.10;7.53;;;;;;;;;;5013151;28;20465;-42
2023/06/01 09:45:22;;;;;;;14.67;9.90;;;;;;;;;;5013269;28;20419;-43
2023/06/01 09:47:48;;;;;;;11.37;8.37;;;;;;;;;;5012312;28;20430;-41
2023/06/01 09:50:33;;;;;;;15.50;9.57;;;;;;;;;;5012304;28;20489;-41
2023/06/01 09:52:59;;;;;;;15.90;9.70;;;;;;;;;;5013004;28;20439;-42
2023/06/01 09:55:25;;;;;;;12.67;9.17;;;;;;;;;;5017242;28;20410;-43
2023/06/01 09:57:51;;;;;;;17.93;8.37;;;;;;;;;;5008359;28;20478;-42
2023/06/01 10:00:27;;;;;;;9.90;8.60;;;;;;;;;;5013045;28;20472;-42
2023/06/01 10:02:54;;;;;;;10.43;8.17;;;;;;;;;;4992426;28;20502;-42
2023/06/01 10:05:21;;;;;;;13.53;9.87;;;;;;;;;;5009960;28;20414;-42
2023/06/01 10:07:47;;;;;;;12.83;8.43;;;;;;;;;;5011859;28;20445;-42
2023/06/01 10:10:15;;;;;;;14.50;8.40;;;;;;;;;;5012865;28;20893;-42
2023/06/01 10:12:41;;;;;;;11.30;9.03;;;;;;;;;;5011496;28;20417;-42
2023/06/01 10:15:08;;;;;;;15.10;8.23;;;;;;;;;;5014144;28;20795;-42
2023/06/01 10:17:34;;;;;;;13.90;8.70;;;;;;;;;;5011439;28;20473;-41
2023/06/01 10:20:02;;;;;;;12.30;7.60;;;;;;;;;;5012830;28;20399;-42
2023/06/01 10:22:29;;;;;;;10.03;8.20;;;;;;;;;;5011854;28;20423;-42
2023/06/01 10:24:56;;;;;;;10.87;8.20;;;;;;;;;;5012697;28;20442;-42
2023/06/01 10:27:26;;;;;;;10.70;7.13;;;;;;;;;;5005786;28;21087;-43
2023/06/01 10:29:54;;;;;;;14.57;8.47;;;;;;;;;;5012377;28;20471;-42
2023/06/01 10:32:38;;;;;;;13.33;8.00;;;;;;;;;;5012227;28;20411;-42
2023/06/01 10:35:05;;;;;;;14.23;9.33;;;;;;;;;;5015158;28;20414;-41
2023/06/01 10:37:31;;;;;;;9.30;7.57;;;;;;;;;;5020173;28;20978;-42
2023/06/01 10:40:15;;;;;;;11.57;8.80;;;;;;;;;;5027611;28;20903;-42
2023/06/01 10:42:41;;;;;;;14.97;9.20;;;;;;;;;;5013432;28;20433;-41
2023/06/01 10:45:07;;;;;;;18.80;9.80;;;;;;;;;;5012029;28;20473;-41
2023/06/01 10:47:33;;;;;;;11.90;8.87;;;;;;;;;;5011699;28;20431;-43
2023/06/01 10:50:00;;;;;;;10.13;8.73;;;;;;;;;;5011687;28;20426;-44
2023/06/01 10:52:27;;;;;;;11.40;8.50;;;;;;;;;;5012079;28;20538;-43
2023/06/01 10:54:53;;;;;;;15.20;9.10;;;;;;;;;;5012275;28;20493;-42
2023/06/01 10:57:20;;;;;;;14.90;8.93;;;;;;;;;;5018619;28;20462;-42
2023/06/01 11:00:06;;;;;;;11.97;9.10;;;;;;;;;;5012269;28;20407;-42
2023/06/01 11:02:33;;;;;;;17.97;9.57;;;;;;;;;;5011830;28;20445;-44
2023/06/01 11:05:19;;;;;;;11.97;8.43;;;;;;;;;;5011934;28;20457;-42
2023/06/01 11:07:44;;;;;;;13.20;9.43;;;;;;;;;;5011831;28;20411;-46
2023/06/01 11:10:11;;;;;;;13.60;9.57;;;;;;;;;;5012206;28;20760;-42
2023/06/01 11:13:01;;;;;;;12.57;10.00;;;;;;;;;;5011781;28;20416;-45
2023/06/01 11:15:27;;;;;;;15.00;9.57;;;;;;;;;;5009741;28;20419;-43
2023/06/01 11:17:53;;;;;;;13.90;9.57;;;;;;;;;;5010187;28;20882;-43
2023/06/01 11:20:20;;;;;;;13.83;9.10;;;;;;;;;;5009033;28;20860;-43
2023/06/01 11:22:47;;;;;;;13.27;9.70;;;;;;;;;;5010809;28;20404;-43
2023/06/01 11:25:14;;;;;;;16.20;10.40;;;;;;;;;;5011934;28;20418;-42
2023/06/01 11:27:43;;;;;;;12.13;7.80;;;;;;;;;;5011391;28;20419;-45
2023/06/01 11:30:10;;;;;;;18.00;11.07;;;;;;;;;;5011934;28;20410;-43
2023/06/01 11:32:39;;;;;;;19.77;13.30;;;;;;;;;;5011625;28;20411;-42
2023/06/01 11:35:18;;;;;;;14.33;11.03;;;;;;;;;;5010998;28;20469;-43
2023/06/01 11:37:46;;;;;;;21.17;13.63;;;;;;;;;;5011629;28;20458;-42
2023/06/01 11:40:14;;;;;;;20.53;15.43;;;;;;;;;;5014141;28;20423;-43
2023/06/01 11:42:40;;;;;;;15.73;11.23;;;;;;;;;;5015192;28;20410;-42
2023/06/01 11:45:06;;;;;;;15.43;12.97;;;;;;;;;;5014696;28;20415;-43
2023/06/01 11:47:32;;;;;;;21.97;15.93;;;;;;;;;;5012704;28;20866;-46
2023/06/01 11:49:58;;;;;;;15.70;13.97;;;;;;;;;;5006860;28;20517;-42
2023/06/01 11:52:24;;;;;;;17.23;13.30;;;;;;;;;;5015395;28;20438;-42
2023/06/01 11:54:56;;;;;;;17.60;13.27;;;;;;;;;;5014328;28;20530;-43
2023/06/01 11:57:25;;;;;;;19.17;14.20;;;;;;;;;;5012941;28;20470;-45
2023/06/01 11:59:51;;;;;;;16.67;13.10;;;;;;;;;;5015437;28;20415;-43
2023/06/01 12:02:25;;;;;;;18.83;13.43;;;;;;;;;;5015179;28;20411;-43
2023/06/01 12:05:14;;;;;;;20.77;15.60;;;;;;;;;;5015319;28;20434;-43
2023/06/01 12:07:53;;;;;;;25.47;14.90;;;;;;;;;;5015107;28;20415;-42
2023/06/01 12:10:20;;;;;;;20.97;15.10;;;;;;;;;;5015274;28;20407;-45
2023/06/01 12:12:46;;;;;;;22.43;16.60;;;;;;;;;;5014942;28;20415;-45
2023/06/01 12:15:18;;;;;;;15.60;13.50;;;;;;;;;;5012111;28;20424;-43
2023/06/01 12:17:51;;;;;;;20.93;14.53;;;;;;;;;;5005554;28;20867;-42
2023/06/01 12:20:29;;;;;;;18.30;14.90;;;;;;;;;;5007158;28;20427;-42
2023/06/01 12:22:55;;;;;;;16.30;12.77;;;;;;;;;;5013224;28;20834;-43
2023/06/01 12:25:41;;;;;;;17.93;15.03;;;;;;;;;;5014801;28;20407;-44
2023/06/01 12:28:10;;;;;;;16.70;13.33;;;;;;;;;;5013512;28;20442;-43
2023/06/01 12:30:36;;;;;;;16.03;13.17;;;;;;;;;;5014786;28;20490;-42
2023/06/01 12:33:04;;;;;;;20.80;12.77;;;;;;;;;;5014414;28;20426;-42
2023/06/01 12:35:30;;;;;;;15.63;12.60;;;;;;;;;;5014738;28;20410;-42
2023/06/01 12:38:03;;;;;;;17.10;12.10;;;;;;;;;;5014508;28;20462;-42
2023/06/01 12:40:30;;;;;;;12.80;11.10;;;;;;;;;;5039437;22;20486;-43
2023/06/01 12:42:56;;;;;;;15.30;12.90;;;;;;;;;;5020053;28;20451;-44
2023/06/01 12:45:22;;;;;;;17.53;11.97;;;;;;;;;;5014698;28;20423;-44
2023/06/01 12:47:48;;;;;;;14.93;13.43;;;;;;;;;;5020948;28;20920;-44
2023/06/01 12:50:14;;;;;;;17.10;14.13;;;;;;;;;;5016296;28;20530;-44
2023/06/01 12:52:44;;;;;;;16.37;12.30;;;;;;;;;;5013071;28;20427;-44
2023/06/01 12:55:10;;;;;;;16.33;12.57;;;;;;;;;;5005768;28;20414;-43
2023/06/01 12:57:40;;;;;;;14.10;12.13;;;;;;;;;;5014184;28;20528;-43
2023/06/01 13:00:06;;;;;;;14.23;12.33;;;;;;;;;;5020243;28;20431;-44
2023/06/01 13:02:33;;;;;;;15.10;12.43;;;;;;;;;;5013942;28;20534;-43
2023/06/01 13:04:59;;;;;;;12.77;10.83;;;;;;;;;;5014296;28;20892;-43
2023/06/01 13:07:25;;;;;;;15.57;11.80;;;;;;;;;;5014056;28;20914;-44
2023/06/01 13:09:51;;;;;;;14.00;11.50;;;;;;;;;;5013933;28;20459;-43
2023/06/01 13:12:18;;;;;;;12.77;11.17;;;;;;;;;;5013861;28;20411;-43
2023/06/01 13:14:46;;;;;;;11.27;10.00;;;;;;;;;;5014150;28;21178;-44
2023/06/01 13:17:12;;;;;;;15.27;9.97;;;;;;;;;;5006038;28;20480;-44
2023/06/01 13:19:38;;;;;;;12.03;9.27;;;;;;;;;;5014009;28;20934;-44
2023/06/01 13:22:04;;;;;;;11.97;8.60;;;;;;;;;;5013745;28;20756;-44
2023/06/01 13:24:29;;;;;;;12.63;9.00;;;;;;;;;;5011767;28;20807;-43
2023/06/01 13:26:56;;;;;;;11.63;8.43;;;;;;;;;;5013677;28;20430;-44
2023/06/01 13:29:22;;;;;;;8.33;7.40;;;;;;;;;;5013562;28;20418;-44
2023/06/01 13:31:48;;;;;;;7.80;6.07;;;;;;;;;;5013590;28;20498;-44
2023/06/01 13:34:14;;;;;;;7.77;6.97;;;;;;;;;;5013839;28;20447;-44
2023/06/01 13:36:40;;;;;;;9.80;6.10;;;;;;;;;;5015122;28;20517;-44
2023/06/01 13:39:06;;;;;;;9.30;6.23;;;;;;;;;;5013431;28;20403;-44
2023/06/01 13:41:33;;;;;;;8.17;6.10;;;;;;;;;;5013413;28;20442;-44
2023/06/01 13:43:59;;;;;;;10.57;7.50;;;;;;;;;;5013136;28;20411;-44
2023/06/01 13:46:25;;;;;;;6.90;5.40;;;;;;;;;;5013267;28;20422;-44
2023/06/01 13:48:50;;;;;;;6.10;5.50;;;;;;;;;;5013285;28;20438;-44
2023/06/01 13:51:17;;;;;;;12.33;5.90;;;;;;;;;;5013246;28;20473;-44
2023/06/01 13:53:43;;;;;;;10.40;7.23;;;;;;;;;;5011173;28;20578;-45
2023/06/01 13:56:08;;;;;;;7.20;6.50;;;;;;;;;;5013013;28;20514;-44
2023/06/01 13:58:35;;;;;;;9.70;6.10;;;;;;;;;;5012391;28;20176;-44
2023/06/01 14:01:01;;;;;;;7.20;5.50;;;;;;;;;;5012573;28;20475;-43
2023/06/01 14:03:26;;;;;;;6.20;5.40;;;;;;;;;;5012366;28;20493;-44
2023/06/01 14:05:52;;;;;;;9.20;5.60;;;;;;;;;;5012941;28;20506;-44
2023/06/01 14:08:18;;;;;;;6.37;4.97;;;;;;;;;;5006626;28;20415;-44
2023/06/01 14:10:45;;;;;;;6.37;5.27;;;;;;;;;;5009641;28;20946;-44
2023/06/01 14:13:12;;;;;;;6.60;5.00;;;;;;;;;;5012231;28;20415;-44
2023/06/01 14:15:39;;;;;;;6.93;5.30;;;;;;;;;;5013475;28;20423;-43
2023/06/01 14:18:05;;;;;;;10.27;5.43;;;;;;;;;;5012959;28;20454;-44
2023/06/01 14:20:32;;;;;;;6.43;5.83;;;;;;;;;;5012045;28;20864;-44
2023/06/01 14:23:09;;;;;;;9.10;6.30;;;;;;;;;;5119674;27;21087;-45
2023/06/01 14:25:35;;;;;;;6.93;6.07;;;;;;;;;;5122395;28;20412;-44
2023/06/01 14:28:01;;;;;;;6.53;5.20;;;;;;;;;;5119330;28;20398;-44